sensor_id;sensor_type;location;lat;lon;timestamp;pressure;altitude;pressure_sealevel;temperature;humidity
44926;BME280;30662;51.210;7.656;2024-03-25T00:00:36;149564.63;;;3.00;100.00
44926;BME280;30662;51.210;7.656;2024-03-25T00:03:02;149579.75;;;3.07;100.00
44926;BME280;30662;51.210;7.656;2024-03-25T00:05:29;149593.59;;;3.12;100.00
44926;BME280;30662;51.210;7.656;2024-03-25T00:07:55;149574.72;;;3.04;100.00
44926;BME280;30662;51.210;7.656;2024-03-25T00:10:21;149577.25;;;3.06;100.00
44926;BME280;30662;51.210;7.656;2024-03-25T00:12:47;149550.78;;;2.95;100.00
44926;BME280;30662;51.210;7.656;2024-03-25T00:15:13;149592.34;;;3.12;100.00
44926;BME280;30662;51.210;7.656;2024-03-25T00:17:38;149593.59;;;3.12;100.00
44926;BME280;30662;51.210;7.656;2024-03-25T00:20:06;149575.97;;;3.05;100.00
44926;BME280;30662;51.210;7.656;2024-03-25T00:22:33;149612.50;;;3.20;100.00
44926;BME280;30662;51.210;7.656;2024-03-25T00:24:59;149582.25;;;3.08;100.00
44926;BME280;30662;51.210;7.656;2024-03-25T00:27:25;149568.41;;;3.02;100.00
44926;BME280;30662;51.210;7.656;2024-03-25T00:29:50;149565.91;;;3.01;100.00
44926;BME280;30662;51.210;7.656;2024-03-25T00:32:16;149588.53;;;3.10;100.00
44926;BME280;30662;51.210;7.656;2024-03-25T00:34:42;149578.50;;;3.06;100.00
44926;BME280;30662;51.210;7.656;2024-03-25T00:37:07;149557.09;;;2.97;100.00
44926;BME280;30662;51.210;7.656;2024-03-25T00:39:35;149565.91;;;3.01;100.00
44926;BME280;30662;51.210;7.656;2024-03-25T00:42:01;149577.25;;;3.06;100.00
44926;BME280;30662;51.210;7.656;2024-03-25T00:44:26;149593.59;;;3.12;100.00
44926;BME280;30662;51.210;7.656;2024-03-25T00:46:52;149540.75;;;2.91;100.00
44926;BME280;30662;51.210;7.656;2024-03-25T00:49:18;149539.47;;;2.90;100.00
44926;BME280;30662;51.210;7.656;2024-03-25T00:51:44;149552.03;;;2.95;100.00
44926;BME280;30662;51.210;7.656;2024-03-25T00:54:09;149530.66;;;2.87;100.00
44926;BME280;30662;51.210;7.656;2024-03-25T00:56:36;149516.81;;;2.81;100.00
44926;BME280;30662;51.210;7.656;2024-03-25T00:59:02;149511.78;;;2.79;100.00
44926;BME280;30662;51.210;7.656;2024-03-25T01:01:28;149528.13;;;2.86;100.00
44926;BME280;30662;51.210;7.656;2024-03-25T01:03:54;149523.13;;;2.84;100.00
44926;BME280;30662;51.210;7.656;2024-03-25T01:06:20;149518.06;;;2.82;100.00
44926;BME280;30662;51.210;7.656;2024-03-25T01:08:45;149521.88;;;2.83;100.00
44926;BME280;30662;51.210;7.656;2024-03-25T01:11:11;149524.38;;;2.84;100.00
44926;BME280;30662;51.210;7.656;2024-03-25T01:13:38;149526.88;;;2.85;100.00
44926;BME280;30662;51.210;7.656;2024-03-25T01:16:04;149523.13;;;2.84;100.00
44926;BME280;30662;51.210;7.656;2024-03-25T01:18:30;149524.38;;;2.84;100.00
44926;BME280;30662;51.210;7.656;2024-03-25T01:20:56;149504.25;;;2.76;100.00
44926;BME280;30662;51.210;7.656;2024-03-25T01:23:21;149547.03;;;2.93;100.00
44926;BME280;30662;51.210;7.656;2024-03-25T01:25:47;149555.81;;;2.97;100.00
44926;BME280;30662;51.210;7.656;2024-03-25T01:28:13;149487.88;;;2.69;100.00
44926;BME280;30662;51.210;7.656;2024-03-25T01:30:40;149486.63;;;2.69;100.00
44926;BME280;30662;51.210;7.656;2024-03-25T01:33:06;149485.38;;;2.68;100.00
44926;BME280;30662;51.210;7.656;2024-03-25T01:35:31;149496.66;;;2.73;100.00
44926;BME280;30662;51.210;7.656;2024-03-25T01:37:57;149475.28;;;2.64;100.00
44926;BME280;30662;51.210;7.656;2024-03-25T01:40:23;149467.75;;;2.61;100.00
44926;BME280;30662;51.210;7.656;2024-03-25T01:42:55;149452.66;;;2.55;100.00
44926;BME280;30662;51.210;7.656;2024-03-25T01:45:21;149466.50;;;2.61;100.00
44926;BME280;30662;51.210;7.656;2024-03-25T01:47:48;149496.66;;;2.73;100.00
44926;BME280;30662;51.210;7.656;2024-03-25T01:50:14;149505.50;;;2.76;100.00
44926;BME280;30662;51.210;7.656;2024-03-25T01:52:40;149523.13;;;2.84;100.00
44926;BME280;30662;51.210;7.656;2024-03-25T01:55:07;149497.94;;;2.73;100.00
44926;BME280;30662;51.210;7.656;2024-03-25T01:57:35;149477.78;;;2.65;100.00
44926;BME280;30662;51.210;7.656;2024-03-25T02:00:01;149500.44;;;2.74;100.00
44926;BME280;30662;51.210;7.656;2024-03-25T02:02:27;149494.16;;;2.72;100.00
44926;BME280;30662;51.210;7.656;2024-03-25T02:04:54;149482.81;;;2.67;100.00
44926;BME280;30662;51.210;7.656;2024-03-25T02:07:20;149501.69;;;2.75;100.00
44926;BME280;30662;51.210;7.656;2024-03-25T02:09:47;149471.53;;;2.63;100.00
44926;BME280;30662;51.210;7.656;2024-03-25T02:12:13;149508.00;;;2.78;100.00
44926;BME280;30662;51.210;7.656;2024-03-25T02:14:39;149503.00;;;2.75;100.00
44926;BME280;30662;51.210;7.656;2024-03-25T02:17:05;149515.53;;;2.81;100.00
44926;BME280;30662;51.210;7.656;2024-03-25T02:19:31;149529.41;;;2.86;100.00
44926;BME280;30662;51.210;7.656;2024-03-25T02:21:59;149515.53;;;2.81;100.00
44926;BME280;30662;51.210;7.656;2024-03-25T02:24:25;149503.00;;;2.75;100.00
44926;BME280;30662;51.210;7.656;2024-03-25T02:26:53;149501.69;;;2.75;100.00
44926;BME280;30662;51.210;7.656;2024-03-25T02:29:19;149529.41;;;2.86;100.00
44926;BME280;30662;51.210;7.656;2024-03-25T02:31:44;149539.47;;;2.90;100.00
44926;BME280;30662;51.210;7.656;2024-03-25T02:34:10;149513.03;;;2.80;100.00
44926;BME280;30662;51.210;7.656;2024-03-25T02:36:36;149519.31;;;2.82;100.00
44926;BME280;30662;51.210;7.656;2024-03-25T02:39:02;149531.91;;;2.87;100.00
44926;BME280;30662;51.210;7.656;2024-03-25T02:41:27;149536.94;;;2.89;100.00
44926;BME280;30662;51.210;7.656;2024-03-25T02:43:54;149511.78;;;2.79;100.00
44926;BME280;30662;51.210;7.656;2024-03-25T02:46:20;149490.41;;;2.70;100.00
44926;BME280;30662;51.210;7.656;2024-03-25T02:48:46;149506.75;;;2.77;100.00
44926;BME280;30662;51.210;7.656;2024-03-25T02:51:18;149480.31;;;2.66;100.00
44926;BME280;30662;51.210;7.656;2024-03-25T02:53:44;149486.63;;;2.69;100.00
44926;BME280;30662;51.210;7.656;2024-03-25T02:56:10;149500.44;;;2.74;100.00
44926;BME280;30662;51.210;7.656;2024-03-25T02:58:35;149494.16;;;2.72;100.00
44926;BME280;30662;51.210;7.656;2024-03-25T03:01:03;149490.41;;;2.70;100.00
44926;BME280;30662;51.210;7.656;2024-03-25T03:03:28;149494.16;;;2.72;100.00
44926;BME280;30662;51.210;7.656;2024-03-25T03:05:54;149506.75;;;2.77;100.00
44926;BME280;30662;51.210;7.656;2024-03-25T03:08:20;149509.28;;;2.78;100.00
44926;BME280;30662;51.210;7.656;2024-03-25T03:10:46;149504.25;;;2.76;100.00
44926;BME280;30662;51.210;7.656;2024-03-25T03:13:12;149505.50;;;2.76;100.00
44926;BME280;30662;51.210;7.656;2024-03-25T03:15:37;149492.91;;;2.71;100.00
44926;BME280;30662;51.210;7.656;2024-03-25T03:18:05;149479.06;;;2.66;100.00
44926;BME280;30662;51.210;7.656;2024-03-25T03:20:30;149470.28;;;2.62;100.00
44926;BME280;30662;51.210;7.656;2024-03-25T03:22:56;149465.19;;;2.60;100.00
44926;BME280;30662;51.210;7.656;2024-03-25T03:25:22;149457.66;;;2.57;100.00
44926;BME280;30662;51.210;7.656;2024-03-25T03:27:47;149471.53;;;2.63;100.00
44926;BME280;30662;51.210;7.656;2024-03-25T03:30:13;149469.00;;;2.62;100.00
44926;BME280;30662;51.210;7.656;2024-03-25T03:32:39;149463.94;;;2.60;100.00
44926;BME280;30662;51.210;7.656;2024-03-25T03:35:07;149463.94;;;2.60;100.00
44926;BME280;30662;51.210;7.656;2024-03-25T03:37:32;149433.78;;;2.47;100.00
44926;BME280;30662;51.210;7.656;2024-03-25T03:39:58;149436.28;;;2.48;100.00
44926;BME280;30662;51.210;7.656;2024-03-25T03:42:24;149436.28;;;2.48;100.00
44926;BME280;30662;51.210;7.656;2024-03-25T03:44:50;149445.06;;;2.52;100.00
44926;BME280;30662;51.210;7.656;2024-03-25T03:47:15;149484.06;;;2.68;100.00
44926;BME280;30662;51.210;7.656;2024-03-25T03:49:41;149460.19;;;2.58;100.00
44926;BME280;30662;51.210;7.656;2024-03-25T03:52:08;149463.94;;;2.60;100.00
44926;BME280;30662;51.210;7.656;2024-03-25T03:54:34;149499.19;;;2.74;100.00
44926;BME280;30662;51.210;7.656;2024-03-25T03:56:59;149476.53;;;2.65;100.00
44926;BME280;30662;51.210;7.656;2024-03-25T03:59:26;149467.75;;;2.61;100.00
44926;BME280;30662;51.210;7.656;2024-03-25T04:01:52;149492.91;;;2.71;100.00
44926;BME280;30662;51.210;7.656;2024-03-25T04:04:18;149467.75;;;2.61;100.00
44926;BME280;30662;51.210;7.656;2024-03-25T04:06:43;149476.53;;;2.65;100.00
44926;BME280;30662;51.210;7.656;2024-03-25T04:09:10;149500.44;;;2.74;100.00
44926;BME280;30662;51.210;7.656;2024-03-25T04:11:36;149496.66;;;2.73;100.00
44926;BME280;30662;51.210;7.656;2024-03-25T04:14:02;149480.31;;;2.66;100.00
44926;BME280;30662;51.210;7.656;2024-03-25T04:16:27;149487.88;;;2.69;100.00
44926;BME280;30662;51.210;7.656;2024-03-25T04:18:53;149495.41;;;2.72;100.00
44926;BME280;30662;51.210;7.656;2024-03-25T04:21:19;149492.91;;;2.71;100.00
44926;BME280;30662;51.210;7.656;2024-03-25T04:23:44;149508.00;;;2.78;100.00
44926;BME280;30662;51.210;7.656;2024-03-25T04:26:12;149494.16;;;2.72;100.00
44926;BME280;30662;51.210;7.656;2024-03-25T04:28:38;149482.81;;;2.67;100.00
44926;BME280;30662;51.210;7.656;2024-03-25T04:31:03;149466.50;;;2.61;100.00
44926;BME280;30662;51.210;7.656;2024-03-25T04:33:29;149484.06;;;2.68;100.00
44926;BME280;30662;51.210;7.656;2024-03-25T04:35:55;149475.28;;;2.64;100.00
44926;BME280;30662;51.210;7.656;2024-03-25T04:38:20;149497.94;;;2.73;100.00
44926;BME280;30662;51.210;7.656;2024-03-25T04:40:46;149487.88;;;2.69;100.00
44926;BME280;30662;51.210;7.656;2024-03-25T04:43:13;149486.63;;;2.69;100.00
44926;BME280;30662;51.210;7.656;2024-03-25T04:45:39;149486.63;;;2.69;100.00
44926;BME280;30662;51.210;7.656;2024-03-25T04:48:05;149442.56;;;2.51;100.00
44926;BME280;30662;51.210;7.656;2024-03-25T04:50:31;149461.44;;;2.59;100.00
44926;BME280;30662;51.210;7.656;2024-03-25T04:52:57;149491.66;;;2.71;100.00
44926;BME280;30662;51.210;7.656;2024-03-25T04:55:23;149496.66;;;2.73;100.00
44926;BME280;30662;51.210;7.656;2024-03-25T04:57:48;149461.44;;;2.59;100.00
44926;BME280;30662;51.210;7.656;2024-03-25T05:00:16;149460.19;;;2.58;100.00
44926;BME280;30662;51.210;7.656;2024-03-25T05:02:42;149476.53;;;2.65;100.00
44926;BME280;30662;51.210;7.656;2024-03-25T05:05:07;149452.66;;;2.55;100.00
44926;BME280;30662;51.210;7.656;2024-03-25T05:07:33;149431.28;;;2.46;100.00
44926;BME280;30662;51.210;7.656;2024-03-25T05:09:59;149467.75;;;2.61;100.00
44926;BME280;30662;51.210;7.656;2024-03-25T05:12:25;149472.78;;;2.63;100.00
44926;BME280;30662;51.210;7.656;2024-03-25T05:14:50;149484.06;;;2.68;100.00
44926;BME280;30662;51.210;7.656;2024-03-25T05:17:17;149476.53;;;2.65;100.00
44926;BME280;30662;51.210;7.656;2024-03-25T05:19:43;149477.78;;;2.65;100.00
44926;BME280;30662;51.210;7.656;2024-03-25T05:22:09;149489.16;;;2.70;100.00
44926;BME280;30662;51.210;7.656;2024-03-25T05:24:34;149490.41;;;2.70;100.00
44926;BME280;30662;51.210;7.656;2024-03-25T05:27:00;149460.19;;;2.58;100.00
44926;BME280;30662;51.210;7.656;2024-03-25T05:29:26;149467.75;;;2.61;100.00
44926;BME280;30662;51.210;7.656;2024-03-25T05:31:59;149481.56;;;2.67;100.00
44926;BME280;30662;51.210;7.656;2024-03-25T05:34:27;149486.63;;;2.69;100.00
44926;BME280;30662;51.210;7.656;2024-03-25T05:36:53;149477.78;;;2.65;100.00
44926;BME280;30662;51.210;7.656;2024-03-25T05:39:19;149482.81;;;2.67;100.00
44926;BME280;30662;51.210;7.656;2024-03-25T05:41:44;149505.50;;;2.76;100.00
44926;BME280;30662;51.210;7.656;2024-03-25T05:44:10;149509.28;;;2.78;100.00
44926;BME280;30662;51.210;7.656;2024-03-25T05:46:36;149520.63;;;2.83;100.00
44926;BME280;30662;51.210;7.656;2024-03-25T05:49:02;149505.50;;;2.76;100.00
44926;BME280;30662;51.210;7.656;2024-03-25T05:51:30;149500.44;;;2.74;100.00
44926;BME280;30662;51.210;7.656;2024-03-25T05:53:55;149509.28;;;2.78;100.00
44926;BME280;30662;51.210;7.656;2024-03-25T05:56:22;149526.88;;;2.85;100.00
44926;BME280;30662;51.210;7.656;2024-03-25T05:58:47;149499.19;;;2.74;100.00
44926;BME280;30662;51.210;7.656;2024-03-25T06:01:13;149523.13;;;2.84;100.00
44926;BME280;30662;51.210;7.656;2024-03-25T06:03:39;149530.66;;;2.87;100.00
44926;BME280;30662;51.210;7.656;2024-03-25T06:06:05;149516.81;;;2.81;100.00
44926;BME280;30662;51.210;7.656;2024-03-25T06:08:32;149529.41;;;2.86;100.00
44926;BME280;30662;51.210;7.656;2024-03-25T06:11:00;149543.25;;;2.92;100.00
44926;BME280;30662;51.210;7.656;2024-03-25T06:13:26;149543.25;;;2.92;100.00
44926;BME280;30662;51.210;7.656;2024-03-25T06:15:52;149553.28;;;2.96;100.00
44926;BME280;30662;51.210;7.656;2024-03-25T06:18:18;149553.28;;;2.96;100.00
44926;BME280;30662;51.210;7.656;2024-03-25T06:20:43;149533.16;;;2.88;100.00
44926;BME280;30662;51.210;7.656;2024-03-25T06:23:10;149559.63;;;2.98;100.00
44926;BME280;30662;51.210;7.656;2024-03-25T06:25:37;149562.13;;;2.99;100.00
44926;BME280;30662;51.210;7.656;2024-03-25T06:28:04;149564.63;;;3.00;100.00
44926;BME280;30662;51.210;7.656;2024-03-25T06:30:30;149568.41;;;3.02;100.00
44926;BME280;30662;51.210;7.656;2024-03-25T06:32:55;149587.28;;;3.10;100.00
44926;BME280;30662;51.210;7.656;2024-03-25T06:35:21;149581.00;;;3.07;100.00
44926;BME280;30662;51.210;7.656;2024-03-25T06:37:47;149562.13;;;2.99;100.00
44926;BME280;30662;51.210;7.656;2024-03-25T06:40:12;149589.78;;;3.11;100.00
44926;BME280;30662;51.210;7.656;2024-03-25T06:42:39;149589.78;;;3.11;100.00
44926;BME280;30662;51.210;7.656;2024-03-25T06:45:06;149588.53;;;3.10;100.00
44926;BME280;30662;51.210;7.656;2024-03-25T06:47:31;149563.38;;;3.00;100.00
44926;BME280;30662;51.210;7.656;2024-03-25T06:49:57;149579.75;;;3.07;100.00
44926;BME280;30662;51.210;7.656;2024-03-25T06:52:23;149558.38;;;2.98;100.00
44926;BME280;30662;51.210;7.656;2024-03-25T06:54:48;149579.75;;;3.07;100.00
44926;BME280;30662;51.210;7.656;2024-03-25T06:57:14;149584.78;;;3.09;100.00
44926;BME280;30662;51.210;7.656;2024-03-25T06:59:41;149597.38;;;3.14;100.00
44926;BME280;30662;51.210;7.656;2024-03-25T07:02:07;149620.03;;;3.23;100.00
44926;BME280;30662;51.210;7.656;2024-03-25T07:04:32;149626.31;;;3.25;100.00
44926;BME280;30662;51.210;7.656;2024-03-25T07:06:58;149612.50;;;3.20;100.00
44926;BME280;30662;51.210;7.656;2024-03-25T07:09:24;149649.00;;;3.35;100.00
44926;BME280;30662;51.210;7.656;2024-03-25T07:11:49;149652.75;;;3.36;100.00
44926;BME280;30662;51.210;7.656;2024-03-25T07:14:15;149675.41;;;3.45;100.00
44926;BME280;30662;51.210;7.656;2024-03-25T07:16:42;149696.81;;;3.54;100.00
44926;BME280;30662;51.210;7.656;2024-03-25T07:19:08;149720.75;;;3.64;100.00
44926;BME280;30662;51.210;7.656;2024-03-25T07:21:33;149665.38;;;3.41;100.00
44926;BME280;30662;51.210;7.656;2024-03-25T07:23:59;149691.78;;;3.52;100.00
44926;BME280;30662;51.210;7.656;2024-03-25T07:26:25;149708.16;;;3.58;100.00
44926;BME280;30662;51.210;7.656;2024-03-25T07:28:50;149725.78;;;3.66;100.00
44926;BME280;30662;51.210;7.656;2024-03-25T07:31:16;149753.50;;;3.77;100.00
44926;BME280;30662;51.210;7.656;2024-03-25T07:33:43;149730.81;;;3.68;100.00
44926;BME280;30662;51.210;7.656;2024-03-25T07:36:09;149778.69;;;3.87;100.00
44926;BME280;30662;51.210;7.656;2024-03-25T07:38:35;149798.84;;;3.95;100.00
44926;BME280;30662;51.210;7.656;2024-03-25T07:41:03;149766.06;;;3.82;100.00
44926;BME280;30662;51.210;7.656;2024-03-25T07:43:28;149802.59;;;3.97;100.00
44926;BME280;30662;51.210;7.656;2024-03-25T07:45:54;149822.75;;;4.05;100.00
44926;BME280;30662;51.210;7.656;2024-03-25T07:48:20;149788.78;;;3.91;100.00
44926;BME280;30662;51.210;7.656;2024-03-25T07:50:47;149839.13;;;4.11;100.00
44926;BME280;30662;51.210;7.656;2024-03-25T07:53:13;149825.31;;;4.06;100.00
44926;BME280;30662;51.210;7.656;2024-03-25T07:55:39;149831.59;;;4.08;100.00
44926;BME280;30662;51.210;7.656;2024-03-25T07:58:05;149827.81;;;4.07;100.00
44926;BME280;30662;51.210;7.656;2024-03-25T08:00:31;149874.41;;;4.26;100.00
44926;BME280;30662;51.210;7.656;2024-03-25T08:02:56;149933.66;;;4.50;100.00
44926;BME280;30662;51.210;7.656;2024-03-25T08:05:22;149947.47;;;4.55;100.00
44926;BME280;30662;51.210;7.656;2024-03-25T08:07:49;149921.03;;;4.45;100.00
44926;BME280;30662;51.210;7.656;2024-03-25T08:10:15;149960.09;;;4.60;100.00
44926;BME280;30662;51.210;7.656;2024-03-25T08:12:41;149989.09;;;4.72;100.00
44926;BME280;30662;51.210;7.656;2024-03-25T08:15:07;149961.38;;;4.61;100.00
44926;BME280;30662;51.210;7.656;2024-03-25T08:17:33;149938.69;;;4.52;100.00
44926;BME280;30662;51.210;7.656;2024-03-25T08:19:59;149960.09;;;4.60;100.00
44926;BME280;30662;51.210;7.656;2024-03-25T08:22:24;149869.38;;;4.24;100.00
44926;BME280;30662;51.210;7.656;2024-03-25T08:24:51;149893.31;;;4.33;100.00
44926;BME280;30662;51.210;7.656;2024-03-25T08:27:17;149902.16;;;4.37;100.00
44926;BME280;30662;51.210;7.656;2024-03-25T08:29:43;149924.81;;;4.46;100.00
44926;BME280;30662;51.210;7.656;2024-03-25T08:32:08;149979.00;;;4.68;100.00
44926;BME280;30662;51.210;7.656;2024-03-25T08:34:34;150060.94;;;5.01;100.00
44926;BME280;30662;51.210;7.656;2024-03-25T08:37:00;150127.75;;;5.28;100.00
44926;BME280;30662;51.210;7.656;2024-03-25T08:39:25;150137.84;;;5.32;100.00
44926;BME280;30662;51.210;7.656;2024-03-25T08:41:52;150170.66;;;5.45;100.00
44926;BME280;30662;51.210;7.656;2024-03-25T08:44:18;150063.47;;;5.02;100.00
44926;BME280;30662;51.210;7.656;2024-03-25T08:46:44;150047.06;;;4.95;100.00
44926;BME280;30662;51.210;7.656;2024-03-25T08:49:10;150087.41;;;5.12;100.00
44926;BME280;30662;51.210;7.656;2024-03-25T08:51:35;150068.50;;;5.04;100.00
44926;BME280;30662;51.210;7.656;2024-03-25T08:54:01;150089.91;;;5.13;100.00
44926;BME280;30662;51.210;7.656;2024-03-25T08:56:27;150144.13;;;5.35;100.00
44926;BME280;30662;51.210;7.656;2024-03-25T08:58:54;150242.53;;;5.74;100.00
44926;BME280;30662;51.210;7.656;2024-03-25T09:01:20;150280.38;;;5.90;100.00
44926;BME280;30662;51.210;7.656;2024-03-25T09:03:46;150319.53;;;6.05;100.00
44926;BME280;30662;51.210;7.656;2024-03-25T09:06:11;150246.31;;;5.76;100.00
44926;BME280;30662;51.210;7.656;2024-03-25T09:08:37;150317.00;;;6.04;100.00
44926;BME280;30662;51.210;7.656;2024-03-25T09:11:03;150375.03;;;6.28;100.00
44926;BME280;30662;51.210;7.656;2024-03-25T09:13:29;150425.53;;;6.48;98.92
44926;BME280;30662;51.210;7.656;2024-03-25T09:15:56;150515.16;;;6.84;100.00
44926;BME280;30662;51.210;7.656;2024-03-25T09:18:22;150542.94;;;6.96;99.47
44926;BME280;30662;51.210;7.656;2024-03-25T09:20:48;150565.66;;;7.05;99.26
44926;BME280;30662;51.210;7.656;2024-03-25T09:23:13;150503.75;;;6.80;100.00
44926;BME280;30662;51.210;7.656;2024-03-25T09:25:39;150529.03;;;6.90;98.07
44926;BME280;30662;51.210;7.656;2024-03-25T09:28:05;150477.28;;;6.69;100.00
44926;BME280;30662;51.210;7.656;2024-03-25T09:30:31;150416.72;;;6.45;96.72
44926;BME280;30662;51.210;7.656;2024-03-25T09:32:58;150400.31;;;6.38;95.63
44926;BME280;30662;51.210;7.656;2024-03-25T09:35:23;150409.13;;;6.42;95.86
44926;BME280;30662;51.210;7.656;2024-03-25T09:37:49;150434.38;;;6.52;90.73
44926;BME280;30662;51.210;7.656;2024-03-25T09:40:15;150401.56;;;6.39;96.91
44926;BME280;30662;51.210;7.656;2024-03-25T09:42:46;150439.41;;;6.54;93.99
44926;BME280;30662;51.210;7.656;2024-03-25T09:45:13;150361.16;;;6.22;95.64
44926;BME280;30662;51.210;7.656;2024-03-25T09:47:41;150338.44;;;6.13;100.00
44926;BME280;30662;51.210;7.656;2024-03-25T09:50:12;150397.72;;;6.37;100.00
44926;BME280;30662;51.210;7.656;2024-03-25T09:52:38;150367.50;;;6.25;100.00
44926;BME280;30662;51.210;7.656;2024-03-25T09:55:04;150322.03;;;6.06;96.98
44926;BME280;30662;51.210;7.656;2024-03-25T09:57:30;150265.22;;;5.84;100.00
44926;BME280;30662;51.210;7.656;2024-03-25T09:59:56;150310.72;;;6.02;100.00
44926;BME280;30662;51.210;7.656;2024-03-25T10:02:22;150357.38;;;6.21;100.00
44926;BME280;30662;51.210;7.656;2024-03-25T10:04:48;150434.38;;;6.52;100.00
44926;BME280;30662;51.210;7.656;2024-03-25T10:07:21;150568.19;;;7.06;94.33
44926;BME280;30662;51.210;7.656;2024-03-25T10:09:47;150633.84;;;7.32;79.42
44926;BME280;30662;51.210;7.656;2024-03-25T10:12:13;150683.06;;;7.52;84.20
44926;BME280;30662;51.210;7.656;2024-03-25T10:14:39;150602.28;;;7.19;82.92
44926;BME280;30662;51.210;7.656;2024-03-25T10:17:05;150500.00;;;6.78;85.39
44926;BME280;30662;51.210;7.656;2024-03-25T10:19:31;150487.34;;;6.73;85.51
44926;BME280;30662;51.210;7.656;2024-03-25T10:22:04;150498.72;;;6.78;87.26
44926;BME280;30662;51.210;7.656;2024-03-25T10:24:39;150505.03;;;6.80;88.70
44926;BME280;30662;51.210;7.656;2024-03-25T10:27:05;150474.75;;;6.68;85.11
44926;BME280;30662;51.210;7.656;2024-03-25T10:29:31;150407.84;;;6.41;94.04
44926;BME280;30662;51.210;7.656;2024-03-25T10:32:00;150390.19;;;6.34;92.59
44926;BME280;30662;51.210;7.656;2024-03-25T10:34:25;150416.72;;;6.45;94.89
44926;BME280;30662;51.210;7.656;2024-03-25T10:36:55;150467.16;;;6.65;92.28
44926;BME280;30662;51.210;7.656;2024-03-25T10:39:25;150450.75;;;6.58;96.63
44926;BME280;30662;51.210;7.656;2024-03-25T10:41:55;150482.31;;;6.71;95.12
44926;BME280;30662;51.210;7.656;2024-03-25T10:44:22;150563.13;;;7.04;95.00
44926;BME280;30662;51.210;7.656;2024-03-25T10:46:50;150597.22;;;7.17;93.13
44926;BME280;30662;51.210;7.656;2024-03-25T10:49:21;150661.59;;;7.43;89.75
44926;BME280;30662;51.210;7.656;2024-03-25T10:51:53;150751.28;;;7.80;83.65
44926;BME280;30662;51.210;7.656;2024-03-25T10:54:20;151005.38;;;8.82;70.94
44926;BME280;30662;51.210;7.656;2024-03-25T10:56:47;151053.44;;;9.01;67.88
44926;BME280;30662;51.210;7.656;2024-03-25T10:59:15;151124.25;;;9.30;65.85
44926;BME280;30662;51.210;7.656;2024-03-25T11:01:41;151260.84;;;9.85;64.93
44926;BME280;30662;51.210;7.656;2024-03-25T11:04:07;151268.47;;;9.88;59.55
44926;BME280;30662;51.210;7.656;2024-03-25T11:06:32;151269.72;;;9.88;57.24
44926;BME280;30662;51.210;7.656;2024-03-25T11:08:58;151319.09;;;10.08;57.77
44926;BME280;30662;51.210;7.656;2024-03-25T11:11:31;151531.81;;;10.94;53.51
44926;BME280;30662;51.210;7.656;2024-03-25T11:13:56;151440.63;;;10.57;52.98
44926;BME280;30662;51.210;7.656;2024-03-25T11:16:29;151531.81;;;10.94;53.43
44926;BME280;30662;51.210;7.656;2024-03-25T11:18:55;151483.69;;;10.74;50.74
44926;BME280;30662;51.210;7.656;2024-03-25T11:21:25;151472.28;;;10.70;54.10
44926;BME280;30662;51.210;7.656;2024-03-25T11:23:51;151605.28;;;11.23;56.62
44926;BME280;30662;51.210;7.656;2024-03-25T11:26:18;151495.06;;;10.79;53.87
44926;BME280;30662;51.210;7.656;2024-03-25T11:28:44;151382.41;;;10.34;51.04
44926;BME280;30662;51.210;7.656;2024-03-25T11:31:10;151149.53;;;9.40;56.16
44926;BME280;30662;51.210;7.656;2024-03-25T11:33:38;151233.03;;;9.74;59.01
44926;BME280;30662;51.210;7.656;2024-03-25T11:36:04;151291.22;;;9.97;55.73
44926;BME280;30662;51.210;7.656;2024-03-25T11:38:30;151187.47;;;9.55;56.18
44926;BME280;30662;51.210;7.656;2024-03-25T11:40:56;151289.97;;;9.97;55.91
44926;BME280;30662;51.210;7.656;2024-03-25T11:43:23;151063.56;;;9.05;57.77
44926;BME280;30662;51.210;7.656;2024-03-25T11:45:49;150867.56;;;8.26;61.67
44926;BME280;30662;51.210;7.656;2024-03-25T11:48:15;150968.72;;;8.67;64.02
44926;BME280;30662;51.210;7.656;2024-03-25T11:50:45;151086.31;;;9.15;60.09
44926;BME280;30662;51.210;7.656;2024-03-25T11:53:10;151327.94;;;10.12;56.28
44926;BME280;30662;51.210;7.656;2024-03-25T11:55:36;151264.69;;;9.86;55.38
44926;BME280;30662;51.210;7.656;2024-03-25T11:58:02;151340.59;;;10.17;55.38
44926;BME280;30662;51.210;7.656;2024-03-25T12:00:28;151521.66;;;10.90;53.83
44926;BME280;30662;51.210;7.656;2024-03-25T12:02:54;151744.56;;;11.79;53.79
44926;BME280;30662;51.210;7.656;2024-03-25T12:05:20;151894.22;;;12.39;49.47
44926;BME280;30662;51.210;7.656;2024-03-25T12:07:47;151762.38;;;11.86;48.86
44926;BME280;30662;51.210;7.656;2024-03-25T12:10:13;151942.34;;;12.59;47.78
44926;BME280;30662;51.210;7.656;2024-03-25T12:12:39;151749.72;;;11.81;48.14
44926;BME280;30662;51.210;7.656;2024-03-25T12:15:05;151859.97;;;12.26;48.83
44926;BME280;30662;51.210;7.656;2024-03-25T12:17:33;151743.31;;;11.79;46.94
44926;BME280;30662;51.210;7.656;2024-03-25T12:20:01;151789.00;;;11.97;46.15
44926;BME280;30662;51.210;7.656;2024-03-25T12:22:27;151843.50;;;12.19;50.22
44926;BME280;30662;51.210;7.656;2024-03-25T12:24:57;151981.63;;;12.75;48.22
44926;BME280;30662;51.210;7.656;2024-03-25T12:27:23;152065.34;;;13.08;44.79
44926;BME280;30662;51.210;7.656;2024-03-25T12:29:57;151872.63;;;12.31;44.13
44926;BME280;30662;51.210;7.656;2024-03-25T12:32:30;151922.06;;;12.51;43.20
44926;BME280;30662;51.210;7.656;2024-03-25T12:34:57;152022.25;;;12.91;42.84
44926;BME280;30662;51.210;7.656;2024-03-25T12:37:23;152042.53;;;12.99;41.39
44926;BME280;30662;51.210;7.656;2024-03-25T12:39:51;151988.00;;;12.77;41.68
44926;BME280;30662;51.210;7.656;2024-03-25T12:42:18;151631.84;;;11.34;41.57
44926;BME280;30662;51.210;7.656;2024-03-25T12:44:45;151595.13;;;11.19;42.83
44926;BME280;30662;51.210;7.656;2024-03-25T12:47:10;151564.69;;;11.07;44.29